createdAt,value
2022-09-20T00:01:44.172Z,13.57
2022-09-20T00:04:13.321Z,13.60
2022-09-20T00:06:40.845Z,13.59
2022-09-20T00:09:08.362Z,13.61
2022-09-20T00:11:36.746Z,13.60
2022-09-20T00:14:06.032Z,13.61
2022-09-20T00:16:34.723Z,13.59
2022-09-20T00:19:04.031Z,13.58
2022-09-20T00:21:36.309Z,13.56
2022-09-20T00:24:04.505Z,13.55
2022-09-20T00:26:32.084Z,13.52
2022-09-20T00:29:00.201Z,13.50
2022-09-20T00:31:27.819Z,13.47
2022-09-20T00:34:13.309Z,13.43
2022-09-20T00:36:42.228Z,13.39
2022-09-20T00:39:11.559Z,13.35
2022-09-20T00:41:39.124Z,13.30
2022-09-20T00:44:21.525Z,13.27
2022-09-20T00:46:49.081Z,13.23
2022-09-20T00:49:18.597Z,13.21
2022-09-20T00:51:49.893Z,13.15
2022-09-20T00:54:20.480Z,13.12
2022-09-20T00:56:49.563Z,13.05
2022-09-20T00:59:20.832Z,13.02
2022-09-20T01:01:50.843Z,12.97
2022-09-20T01:04:21.726Z,12.93
2022-09-20T01:06:52.774Z,12.87
2022-09-20T01:09:20.260Z,12.84
2022-09-20T01:11:47.951Z,12.81
2022-09-20T01:14:17.075Z,12.78
2022-09-20T01:16:44.723Z,12.76
2022-09-20T01:19:17.476Z,12.75
2022-09-20T01:21:46.613Z,12.74
2022-09-20T01:24:22.837Z,12.72
2022-09-20T01:26:59.152Z,12.70
2022-09-20T01:29:38.409Z,12.70
2022-09-20T01:32:10.254Z,12.67
2022-09-20T01:34:38.571Z,12.67
2022-09-20T01:37:07.948Z,12.67
2022-09-20T01:39:40.754Z,12.66
2022-09-20T01:42:10.641Z,12.64
2022-09-20T01:44:42.196Z,12.62
2022-09-20T01:47:14.213Z,12.64
2022-09-20T01:49:46.705Z,12.65
2022-09-20T01:52:39.273Z,12.66
2022-09-20T01:55:24.398Z,12.67
2022-09-20T01:58:09.555Z,12.68
2022-09-20T02:00:47.511Z,12.68
2022-09-20T02:03:47.401Z,12.68
2022-09-20T02:06:21.103Z,12.67
2022-09-20T02:09:09.579Z,12.64
2022-09-20T02:11:41.900Z,12.64
2022-09-20T02:14:24.878Z,12.63
2022-09-20T02:16:55.633Z,12.63
2022-09-20T02:19:35.019Z,12.63
2022-09-20T02:22:11.887Z,12.59
2022-09-20T02:24:42.987Z,12.57
2022-09-20T02:27:18.431Z,12.53
2022-09-20T02:29:49.596Z,12.49
2022-09-20T02:32:29.541Z,12.46
2022-09-20T02:35:07.947Z,12.40
2022-09-20T02:37:46.294Z,12.36
2022-09-20T02:40:21.141Z,12.31
2022-09-20T02:42:51.925Z,12.29
2022-09-20T02:45:23.935Z,12.26
2022-09-20T02:47:54.718Z,12.25
2022-09-20T02:50:26.067Z,12.24
2022-09-20T02:53:06.479Z,12.22
2022-09-20T02:55:39.745Z,12.21
2022-09-20T02:58:17.579Z,12.21
2022-09-20T03:00:47.079Z,12.18
2022-09-20T03:03:19.480Z,12.16
2022-09-20T03:05:52.181Z,12.13
2022-09-20T03:08:30.752Z,12.10
2022-09-20T03:11:04.378Z,12.07
2022-09-20T03:13:40.781Z,12.06
2022-09-20T03:16:12.195Z,12.03
2022-09-20T03:18:48.124Z,12.03
2022-09-20T03:21:26.710Z,12.03
2022-09-20T03:23:58.138Z,12.05
2022-09-20T03:26:33.177Z,12.07
2022-09-20T03:29:03.563Z,12.07
2022-09-20T03:31:38.617Z,12.06
2022-09-20T03:34:14.143Z,12.04
2022-09-20T03:36:56.940Z,12.05
2022-09-20T03:39:44.650Z,12.05
2022-09-20T03:42:17.089Z,12.06
2022-09-20T03:45:08.588Z,12.06
2022-09-20T03:47:44.504Z,12.08
2022-09-20T03:50:21.264Z,12.10
2022-09-20T03:52:58.646Z,12.12
2022-09-20T03:55:43.833Z,12.16
2022-09-20T03:58:17.732Z,12.22
2022-09-20T04:00:53.701Z,12.28
2022-09-20T04:03:29.688Z,12.34
2022-09-20T04:06:10.612Z,12.41
2022-09-20T04:08:49.247Z,12.50
2022-09-20T04:11:21.195Z,12.57
2022-09-20T04:13:51.814Z,12.61
2022-09-20T04:16:24.375Z,12.65
2022-09-20T04:18:56.968Z,12.66
2022-09-20T04:21:29.777Z,12.66
2022-09-20T04:24:00.216Z,12.65
2022-09-20T04:26:29.458Z,12.64
2022-09-20T04:28:59.511Z,12.62
2022-09-20T04:31:34.290Z,12.58
2022-09-20T04:34:03.107Z,12.56
2022-09-20T04:36:55.607Z,12.54
2022-09-20T04:39:26.454Z,12.52
2022-09-20T04:42:08.529Z,12.51
2022-09-20T04:44:59.016Z,12.49
2022-09-20T04:47:44.214Z,12.48
2022-09-20T04:50:40.019Z,12.46
2022-09-20T04:53:22.272Z,12.46
2022-09-20T04:55:51.671Z,12.46
2022-09-20T04:58:42.848Z,12.44
2022-09-20T05:01:26.645Z,12.45
2022-09-20T05:04:11.632Z,12.42
2022-09-20T05:07:09.123Z,12.42
2022-09-20T05:09:48.208Z,12.45
2022-09-20T05:12:27.216Z,12.44
2022-09-20T05:15:05.630Z,12.45
2022-09-20T05:17:37.238Z,12.46
2022-09-20T05:20:14.928Z,12.47
2022-09-20T05:23:00.433Z,12.51
2022-09-20T05:25:38.332Z,12.56
2022-09-20T05:28:10.072Z,12.61
2022-09-20T05:30:40.605Z,12.67
2022-09-20T05:33:14.173Z,12.74
2022-09-20T05:35:44.883Z,12.82
2022-09-20T05:38:17.631Z,12.89
2022-09-20T05:40:57.497Z,12.96
2022-09-20T05:43:28.749Z,12.95
2022-09-20T05:46:11.539Z,12.95
2022-09-20T05:48:41.305Z,12.88
2022-09-20T05:51:14.635Z,12.82
2022-09-20T05:53:52.058Z,12.75
2022-09-20T05:56:27.798Z,12.72
2022-09-20T05:59:02.597Z,12.70
2022-09-20T06:01:33.660Z,12.68
2022-09-20T06:04:08.347Z,12.68
2022-09-20T06:06:45.418Z,12.66
2022-09-20T06:09:25.781Z,12.67
2022-09-20T06:12:01.633Z,12.69
2022-09-20T06:14:37.703Z,12.74
2022-09-20T06:17:08.672Z,12.75
2022-09-20T06:19:39.768Z,12.77
2022-09-20T06:22:13.963Z,12.79
2022-09-20T06:24:44.555Z,12.82
2022-09-20T06:27:15.524Z,12.84
2022-09-20T06:29:45.813Z,12.87
2022-09-20T06:32:17.158Z,12.89
2022-09-20T06:34:44.792Z,12.93
2022-09-20T06:37:37.013Z,12.96
2022-09-20T06:40:47.483Z,12.99
2022-09-20T06:43:16.694Z,13.03
2022-09-20T06:45:44.849Z,13.05
2022-09-20T06:48:13.249Z,13.07
2022-09-20T06:50:43.386Z,13.06
2022-09-20T06:53:12.252Z,13.06
2022-09-20T06:55:42.199Z,13.02
2022-09-20T06:58:10.090Z,12.95
2022-09-20T07:00:39.700Z,12.92
2022-09-20T07:03:07.518Z,12.87
2022-09-20T07:05:35.813Z,12.87
2022-09-20T07:08:03.389Z,12.87
2022-09-20T07:10:31.033Z,12.82
2022-09-20T07:13:00.316Z,12.80
2022-09-20T07:15:28.219Z,12.77
2022-09-20T07:17:57.080Z,12.74
2022-09-20T07:20:24.842Z,12.73
2022-09-20T07:22:53.577Z,12.75
2022-09-20T07:25:21.085Z,12.78
2022-09-20T07:27:50.608Z,12.82
2022-09-20T07:30:19.040Z,12.83
2022-09-20T07:32:46.540Z,12.84
2022-09-20T07:35:16.112Z,12.88
2022-09-20T07:37:44.736Z,12.93
2022-09-20T07:40:12.606Z,12.96
2022-09-20T07:42:40.167Z,12.96
2022-09-20T07:45:08.279Z,12.95
2022-09-20T07:47:36.261Z,12.94
2022-09-20T07:50:03.935Z,12.95
2022-09-20T07:52:32.778Z,13.00
2022-09-20T07:55:00.244Z,13.10
2022-09-20T07:57:27.685Z,13.16
2022-09-20T07:59:55.167Z,13.30
2022-09-20T08:02:22.693Z,13.43
2022-09-20T08:04:50.193Z,13.55
2022-09-20T08:07:18.171Z,13.62
2022-09-20T08:09:46.972Z,13.67
2022-09-20T08:15:02.174Z,13.75
2022-09-20T08:17:29.685Z,13.80
2022-09-20T08:19:57.231Z,13.87
2022-09-20T08:22:24.788Z,13.90
2022-09-20T08:24:53.648Z,13.92
2022-09-20T08:27:21.112Z,13.95
2022-09-20T08:29:49.482Z,14.03
2022-09-20T08:32:16.984Z,14.17
2022-09-20T08:34:49.329Z,14.35
2022-09-20T08:37:17.078Z,14.56
2022-09-20T08:39:59.866Z,14.80
2022-09-20T08:42:36.614Z,15.02
2022-09-20T08:45:21.838Z,15.19
2022-09-20T08:47:54.204Z,15.34
2022-09-20T08:50:25.749Z,15.53
2022-09-20T08:53:00.258Z,15.74
2022-09-20T08:55:36.432Z,16.04
2022-09-20T08:58:08.684Z,16.19
2022-09-20T09:00:37.467Z,16.20
2022-09-20T09:03:05.891Z,16.27
2022-09-20T09:05:34.972Z,16.29
2022-09-20T09:08:05.224Z,16.28
2022-09-20T09:10:42.552Z,16.25
2022-09-20T09:13:15.603Z,16.27
2022-09-20T09:15:44.466Z,16.30
2022-09-20T09:18:12.527Z,16.33
2022-09-20T09:20:42.272Z,16.48
2022-09-20T09:23:10.184Z,16.75
2022-09-20T09:25:38.627Z,16.92
2022-09-20T09:28:14.289Z,17.00
2022-09-20T09:30:43.077Z,17.01
2022-09-20T09:33:23.956Z,17.00
2022-09-20T09:35:56.132Z,17.03
2022-09-20T09:38:24.741Z,17.09
2022-09-20T09:40:53.635Z,17.19
2022-09-20T09:43:26.962Z,17.51
2022-09-20T09:45:55.235Z,17.79
2022-09-20T09:48:25.821Z,17.88
2022-09-20T09:51:08.360Z,17.86
2022-09-20T09:53:36.596Z,17.76
2022-09-20T09:56:28.363Z,17.66
2022-09-20T09:59:04.633Z,17.61
2022-09-20T10:01:38.338Z,17.72
2022-09-20T10:04:09.865Z,18.13
2022-09-20T10:06:44.411Z,18.37
2022-09-20T10:09:26.253Z,18.71
2022-09-20T10:12:00.631Z,19.24
2022-09-20T10:14:38.684Z,19.73
2022-09-20T10:17:16.908Z,20.35
2022-09-20T10:19:50.521Z,20.93
2022-09-20T10:22:24.025Z,21.33
2022-09-20T10:24:56.015Z,21.53
2022-09-20T10:27:31.304Z,21.87
2022-09-20T10:30:03.832Z,22.33
2022-09-20T10:32:42.406Z,22.54
2022-09-20T10:35:16.824Z,22.88
2022-09-20T10:37:54.685Z,23.01
2022-09-20T10:40:46.597Z,22.96
2022-09-20T10:43:20.754Z,22.85
2022-09-20T10:48:49.534Z,22.45
2022-09-20T10:51:23.234Z,22.33
2022-09-20T10:53:53.449Z,22.31
2022-09-20T10:56:27.466Z,22.25
2022-09-20T10:59:10.386Z,22.39
2022-09-20T11:01:46.100Z,22.67
2022-09-20T11:04:22.892Z,22.92
2022-09-20T11:06:56.334Z,23.18
2022-09-20T11:09:26.260Z,23.46
2022-09-20T11:11:58.214Z,23.69
2022-09-20T11:14:33.363Z,23.93
2022-09-20T11:17:06.560Z,24.07
2022-09-20T11:19:39.309Z,23.83
2022-09-20T11:22:09.763Z,23.62
2022-09-20T11:24:39.010Z,23.71
2022-09-20T11:27:09.437Z,23.96
2022-09-20T11:29:38.861Z,24.19
2022-09-20T11:32:14.000Z,24.36
2022-09-20T11:34:48.182Z,24.47
2022-09-20T11:37:16.875Z,24.59
2022-09-20T11:39:47.968Z,24.61
2022-09-20T11:42:17.966Z,24.68
2022-09-20T11:44:45.893Z,24.71
2022-09-20T11:47:36.580Z,24.71
2022-09-20T11:50:17.953Z,24.56
2022-09-20T11:52:58.287Z,24.31
2022-09-20T11:55:35.109Z,24.02
2022-09-20T11:58:03.854Z,23.62
2022-09-20T12:00:33.019Z,23.19
2022-09-20T12:03:03.690Z,22.80
2022-09-20T12:05:33.860Z,22.39
2022-09-20T12:08:02.430Z,22.03
2022-09-20T12:10:32.977Z,21.76
2022-09-20T12:13:02.330Z,21.48
2022-09-20T12:15:31.756Z,21.18
2022-09-20T12:18:09.023Z,20.90
2022-09-20T12:20:55.466Z,20.58
2022-09-20T12:23:56.668Z,20.21
2022-09-20T12:26:37.033Z,19.91
2022-09-20T12:29:26.681Z,19.80
2022-09-20T12:31:56.136Z,19.76
2022-09-20T12:34:35.307Z,19.82
2022-09-20T12:37:20.069Z,19.80
2022-09-20T12:39:52.460Z,19.72
2022-09-20T12:42:28.212Z,19.76
2022-09-20T12:45:00.999Z,19.90
2022-09-20T12:47:31.501Z,20.13
2022-09-20T12:50:17.672Z,20.32
2022-09-20T12:52:58.723Z,20.50
2022-09-20T12:55:39.900Z,20.58
2022-09-20T12:58:18.231Z,20.59
2022-09-20T13:00:47.223Z,20.59
2022-09-20T13:03:28.419Z,20.57
2022-09-20T13:06:14.934Z,20.61
2022-09-20T13:08:44.125Z,20.63
2022-09-20T13:11:13.633Z,20.61
2022-09-20T13:13:44.611Z,20.66
2022-09-20T13:16:20.076Z,20.66
2022-09-20T13:18:50.836Z,20.67
2022-09-20T13:21:18.523Z,20.70
2022-09-20T13:23:50.083Z,20.71
2022-09-20T13:26:22.272Z,20.78
2022-09-20T13:28:52.286Z,20.87
2022-09-20T13:31:26.749Z,20.88
2022-09-20T13:33:55.905Z,20.88
2022-09-20T13:36:27.372Z,20.90
2022-09-20T13:38:56.581Z,21.01
2022-09-20T13:41:29.106Z,21.09
2022-09-20T13:43:57.049Z,21.12
2022-09-20T13:46:29.335Z,21.16
2022-09-20T13:49:10.524Z,21.20
2022-09-20T13:51:38.228Z,21.22
2022-09-20T13:54:19.128Z,21.13
2022-09-20T13:56:46.837Z,20.99
2022-09-20T13:59:19.296Z,20.85
2022-09-20T14:01:50.351Z,20.74
2022-09-20T14:04:21.401Z,20.68
2022-09-20T14:06:49.873Z,20.66
2022-09-20T14:09:20.101Z,20.61
2022-09-20T14:11:48.053Z,20.64
2022-09-20T14:14:21.293Z,20.65
2022-09-20T14:16:50.770Z,20.58
2022-09-20T14:19:21.166Z,20.53
2022-09-20T14:21:49.173Z,20.48
2022-09-20T14:24:26.195Z,20.44
2022-09-20T14:27:02.019Z,20.34
2022-09-20T14:29:30.078Z,20.24
2022-09-20T14:31:59.454Z,20.21
2022-09-20T14:34:28.648Z,20.11
2022-09-20T14:37:03.825Z,19.95
2022-09-20T14:39:31.439Z,19.84
2022-09-20T14:41:59.110Z,19.67
2022-09-20T14:44:30.270Z,19.52
2022-09-20T14:46:58.141Z,19.42
2022-09-20T14:49:34.483Z,19.34
2022-09-20T14:52:22.025Z,19.24
2022-09-20T14:54:58.786Z,19.13
2022-09-20T14:57:27.409Z,19.09
2022-09-20T14:59:57.072Z,19.04
2022-09-20T15:02:25.719Z,19.05
2022-09-20T15:04:56.857Z,19.13
2022-09-20T15:07:24.494Z,19.21
2022-09-20T15:09:53.914Z,19.27
2022-09-20T15:12:22.150Z,19.26
2022-09-20T15:14:49.827Z,19.24
2022-09-20T15:17:18.024Z,19.24
2022-09-20T15:19:45.554Z,19.20
2022-09-20T15:22:14.756Z,19.13
2022-09-20T15:24:42.906Z,19.12
2022-09-20T15:27:10.750Z,19.11
2022-09-20T15:29:38.247Z,19.10
2022-09-20T15:32:06.331Z,19.06
2022-09-20T15:34:33.827Z,18.99
2022-09-20T15:37:01.394Z,18.89
2022-09-20T15:39:30.387Z,18.77
2022-09-20T15:41:57.921Z,18.64
2022-09-20T15:44:25.555Z,18.59
2022-09-20T15:46:53.270Z,18.56
2022-09-20T15:49:21.627Z,18.50
2022-09-20T15:51:49.333Z,18.42
2022-09-20T15:54:17.118Z,18.29
2022-09-20T15:56:46.081Z,18.19
2022-09-20T15:59:15.298Z,18.08
2022-09-20T16:01:44.053Z,18.00
2022-09-20T16:04:13.167Z,17.91
2022-09-20T16:06:41.829Z,17.84
2022-09-20T16:09:09.706Z,17.79
2022-09-20T16:11:37.668Z,17.71
2022-09-20T16:14:07.119Z,17.66
2022-09-20T16:16:40.105Z,17.59
2022-09-20T16:19:20.778Z,17.52
2022-09-20T16:21:53.613Z,17.41
2022-09-20T16:24:25.600Z,17.30
2022-09-20T16:26:53.266Z,17.22
2022-09-20T16:29:23.440Z,17.15
2022-09-20T16:31:51.219Z,17.09
2022-09-20T16:34:20.289Z,17.01
2022-09-20T16:36:48.939Z,16.93
2022-09-20T16:39:17.785Z,16.85
2022-09-20T16:41:48.176Z,16.82
2022-09-20T16:44:16.082Z,16.77
2022-09-20T16:46:45.922Z,16.71
2022-09-20T16:49:14.216Z,16.66
2022-09-20T16:51:42.501Z,16.62
2022-09-20T16:54:12.131Z,16.55
2022-09-20T16:56:40.736Z,16.49
2022-09-20T16:59:08.462Z,16.42
2022-09-20T17:01:36.834Z,16.37
2022-09-20T17:04:06.635Z,16.31
2022-09-20T17:06:35.301Z,16.27
2022-09-20T17:09:03.028Z,16.23
2022-09-20T17:11:32.609Z,16.19
2022-09-20T17:14:00.850Z,16.14
2022-09-20T17:16:29.815Z,16.11
2022-09-20T17:18:58.302Z,16.05
2022-09-20T17:21:27.992Z,16.02
2022-09-20T17:23:56.565Z,15.96
2022-09-20T17:26:25.541Z,15.92
2022-09-20T17:28:55.678Z,15.88
2022-09-20T17:31:25.184Z,15.82
2022-09-20T17:33:53.091Z,15.76
2022-09-20T17:36:21.361Z,15.70
2022-09-20T17:38:54.316Z,15.65
2022-09-20T17:41:22.553Z,15.59
2022-09-20T17:43:53.868Z,15.54
2022-09-20T17:46:24.681Z,15.49
2022-09-20T17:48:55.586Z,15.44
2022-09-20T17:51:23.964Z,15.39
2022-09-20T17:53:53.415Z,15.34
2022-09-20T17:56:23.205Z,15.30
2022-09-20T17:58:51.045Z,15.24
2022-09-20T18:01:20.249Z,15.18
2022-09-20T18:03:48.800Z,15.12
2022-09-20T18:06:18.844Z,15.07
2022-09-20T18:08:47.015Z,15.00
2022-09-20T18:11:16.484Z,14.96
2022-09-20T18:13:44.413Z,14.90
2022-09-20T18:16:12.752Z,14.85
2022-09-20T18:18:41.045Z,14.80
2022-09-20T18:21:12.770Z,14.75
2022-09-20T18:23:40.279Z,14.69
2022-09-20T18:26:22.591Z,14.62
2022-09-20T18:28:56.702Z,14.55
2022-09-20T18:31:25.342Z,14.48
2022-09-20T18:33:53.540Z,14.44
2022-09-20T18:36:21.384Z,14.39
2022-09-20T18:38:54.144Z,14.37
2022-09-20T18:41:23.950Z,14.33
2022-09-20T18:43:51.880Z,14.29
2022-09-20T18:46:24.876Z,14.27
2022-09-20T18:48:52.753Z,14.24
2022-09-20T18:51:20.569Z,14.21
2022-09-20T18:53:48.618Z,14.19
2022-09-20T18:56:20.748Z,14.18
2022-09-20T18:58:48.422Z,14.16
2022-09-20T19:01:33.845Z,14.15
2022-09-20T19:04:09.523Z,14.13
2022-09-20T19:06:40.577Z,14.13
2022-09-20T19:09:10.694Z,14.14
2022-09-20T19:11:40.340Z,14.15
2022-09-20T19:14:13.075Z,14.14
2022-09-20T19:16:41.784Z,14.15
2022-09-20T19:19:22.495Z,14.14
2022-09-20T19:21:57.457Z,14.16
2022-09-20T19:24:32.554Z,14.17
2022-09-20T19:27:00.219Z,14.17
2022-09-20T19:29:29.282Z,14.18
2022-09-20T19:31:57.799Z,14.19
2022-09-20T19:34:28.007Z,14.19
2022-09-20T19:37:01.962Z,14.20
2022-09-20T19:39:34.878Z,14.20
2022-09-20T19:42:07.018Z,14.18
2022-09-20T19:44:41.109Z,14.17
2022-09-20T19:47:18.839Z,14.17
2022-09-20T19:49:51.627Z,14.16
2022-09-20T19:52:19.744Z,14.15
2022-09-20T19:54:47.564Z,14.14
2022-09-20T19:57:19.150Z,14.10
2022-09-20T19:59:47.276Z,14.08
2022-09-20T20:02:15.423Z,14.05
2022-09-20T20:04:43.564Z,14.01
2022-09-20T20:07:21.216Z,13.97
2022-09-20T20:09:50.890Z,13.92
2022-09-20T20:12:25.725Z,13.87
2022-09-20T20:14:58.297Z,13.82
2022-09-20T20:17:34.369Z,13.77
2022-09-20T20:20:07.171Z,13.71
2022-09-20T20:22:43.694Z,13.65
2022-09-20T20:25:18.322Z,13.59
2022-09-20T20:27:45.820Z,13.51
2022-09-20T20:30:13.409Z,13.43
2022-09-20T20:32:41.615Z,13.36
2022-09-20T20:35:11.905Z,13.27
2022-09-20T20:37:40.872Z,13.19
2022-09-20T20:40:12.156Z,13.10
2022-09-20T20:42:40.406Z,13.03
2022-09-20T20:45:08.359Z,12.99
2022-09-20T20:47:35.858Z,12.94
2022-09-20T20:50:03.361Z,12.94
2022-09-20T20:52:31.311Z,12.92
2022-09-20T20:55:00.198Z,12.91
2022-09-20T20:57:28.014Z,12.90
2022-09-20T20:59:55.536Z,12.92
2022-09-20T21:02:23.078Z,12.93
2022-09-20T21:04:50.677Z,12.93
2022-09-20T21:07:18.155Z,12.95
2022-09-20T21:09:46.439Z,12.97
2022-09-20T21:12:15.517Z,12.99
2022-09-20T21:14:44.516Z,13.00
2022-09-20T21:17:12.000Z,13.03
2022-09-20T21:19:39.487Z,13.05
2022-09-20T21:22:06.990Z,13.06
2022-09-20T21:24:34.487Z,13.08
2022-09-20T21:27:04.652Z,13.08
2022-09-20T21:29:34.491Z,13.09
2022-09-20T21:32:02.083Z,13.10
2022-09-20T21:34:29.569Z,13.11
2022-09-20T21:36:57.132Z,13.13
2022-09-20T21:39:24.835Z,13.16
2022-09-20T21:41:52.361Z,13.17
2022-09-20T21:44:20.525Z,13.17
2022-09-20T21:46:50.007Z,13.18
2022-09-20T21:49:17.806Z,13.19
2022-09-20T21:51:45.337Z,13.20
2022-09-20T21:54:12.887Z,13.22
2022-09-20T21:56:41.122Z,13.23
2022-09-20T21:59:09.423Z,13.23
2022-09-20T22:01:38.389Z,13.25
2022-09-20T22:04:08.582Z,13.23
2022-09-20T22:06:36.935Z,13.24
2022-09-20T22:09:06.078Z,13.26
2022-09-20T22:11:35.707Z,13.27
2022-09-20T22:14:03.201Z,13.28
2022-09-20T22:16:31.412Z,13.26
2022-09-20T22:18:59.694Z,13.25
2022-09-20T22:21:29.792Z,13.24
2022-09-20T22:23:58.387Z,13.24
2022-09-20T22:26:27.248Z,13.26
2022-09-20T22:28:54.970Z,13.25
2022-09-20T22:31:23.574Z,13.26
2022-09-20T22:33:52.392Z,13.27
2022-09-20T22:36:21.357Z,13.27
2022-09-20T22:38:50.646Z,13.27
2022-09-20T22:41:19.044Z,13.28
2022-09-20T22:43:46.859Z,13.30
2022-09-20T22:46:15.274Z,13.31
2022-09-20T22:48:43.718Z,13.33
2022-09-20T22:51:12.414Z,13.32
2022-09-20T22:53:40.090Z,13.33
2022-09-20T22:56:10.048Z,13.33
2022-09-20T22:58:38.580Z,13.33
2022-09-20T23:01:07.298Z,13.32
2022-09-20T23:03:35.506Z,13.30
2022-09-20T23:06:04.131Z,13.31
2022-09-20T23:08:33.642Z,13.27
2022-09-20T23:11:02.362Z,13.25
2022-09-20T23:13:31.671Z,13.24
2022-09-20T23:15:59.430Z,13.23
2022-09-20T23:18:27.571Z,13.22
2022-09-20T23:21:02.125Z,13.20
2022-09-20T23:23:30.342Z,13.19
2022-09-20T23:26:07.479Z,13.17
2022-09-20T23:28:37.089Z,13.16
2022-09-20T23:31:05.684Z,13.13
2022-09-20T23:33:33.478Z,13.11
2022-09-20T23:36:01.312Z,13.09
2022-09-20T23:38:29.009Z,13.06
2022-09-20T23:40:57.627Z,13.04
2022-09-20T23:43:25.360Z,13.00
2022-09-20T23:45:54.518Z,12.97
2022-09-20T23:48:22.324Z,12.93
2022-09-20T23:50:50.108Z,12.90
2022-09-20T23:53:18.461Z,12.86
2022-09-20T23:55:46.358Z,12.82
2022-09-20T23:58:14.043Z,12.75
